Terminal Aerodrome Forecast
Issued by NWS Memphis, TN

Home | Current Version | Previous Version | Text Only | Print | Product List | Glossary On
Versions: 1 2 3 4 5 6 7 8 9 10 11 12 13 14 15 16 17 18 19 20 21 22 23 24 25 26 27 28 29 30 31
000
FTUS44 KMEG 250259 AAA
TAFMEM
TAF AMD
KMEM 250259Z 2503/2524 21005KT P6SM SKC
     FM251100 22009KT P6SM FEW080 BKN150
     FM251500 25012G20KT P6SM VCSH BKN050 OVC100
      TEMPO 2518/2522 -SHRA
     FM252200 28012G20KT P6SM VCSH SCT030 OVC045=

USA.gov is the U.S. government's official web portal to all federal, state and local government web resources and services.